aviador You're here:

ETHN Decoded Metar

NIEDERSTETTEN in GERMANY
Report Time2018-01-17 00:20:00
UTC Time2018-01-17 01:22:29
Flight Rules ifr IFR
Wind260° at 14 kt
W.Decomp.*RWY 25: 13.9 kt HW 1.9 kt RCW
W.Rank260° ranks 3
Current wind is above 260° avg. (7.5)
Visibility7000 m
Phenomena:N/A
Clouds:Broken 008 Hf
Overcast 030 Hf
Expected CloudBase > 400 ft AGL from Temp-Dew spread
Ceiling800 ft
Temp02°C (ISA -10)
Dew Point01°C (93% RH)
AAT-4.9°C
QNH0995 hPa
Density Alt1,063 ft
Elevation1,552 ft
Report Wrong Elevation
Raw Report
METAR ETHN 170020Z 26014KT 7000 -SHSNRA BKN008 OVC030 02/01 Q0995
GRN=

Extra information for ETHN:More info

Metar Taf Metar & Taf Last 4 Metars F.Rules Stats Wind Profile Meteogram Temp Stats Airport Information Weather charts Add Link Nearby VenuesMetar ALERT Operation Metar Decoded Social comments